sensor_id;sensor_type;location;lat;lon;timestamp;P1;durP1;ratioP1;P2;durP2;ratioP2
48627;SDS011;34424;52.234;6.500;2024-02-21T00:01:18;36.7;;;22.2;;
48627;SDS011;34424;52.234;6.500;2024-02-21T00:06:15;38.4;;;21.1;;
48627;SDS011;34424;52.234;6.500;2024-02-21T00:11:15;33;;;21.2;;
48627;SDS011;34424;52.234;6.500;2024-02-21T00:16:14;32;;;21.1;;
48627;SDS011;34424;52.234;6.500;2024-02-21T00:21:14;34.6;;;21.3;;
48627;SDS011;34424;52.234;6.500;2024-02-21T00:26:14;36.4;;;21.4;;
48627;SDS011;34424;52.234;6.500;2024-02-21T00:31:14;32.5;;;19.9;;
48627;SDS011;34424;52.234;6.500;2024-02-21T00:36:14;29.8;;;19.9;;
48627;SDS011;34424;52.234;6.500;2024-02-21T00:41:13;30.4;;;20.1;;
48627;SDS011;34424;52.234;6.500;2024-02-21T00:46:13;31.8;;;20.2;;
48627;SDS011;34424;52.234;6.500;2024-02-21T00:51:13;30.2;;;18.7;;
48627;SDS011;34424;52.234;6.500;2024-02-21T00:56:13;30.2;;;19.6;;
48627;SDS011;34424;52.234;6.500;2024-02-21T01:01:12;31;;;19.2;;
48627;SDS011;34424;52.234;6.500;2024-02-21T01:06:12;25.2;;;17.3;;
48627;SDS011;34424;52.234;6.500;2024-02-21T01:11:12;29.5;;;18.5;;
48627;SDS011;34424;52.234;6.500;2024-02-21T01:16:12;33;;;18.1;;
48627;SDS011;34424;52.234;6.500;2024-02-21T01:21:11;27.4;;;17.3;;
48627;SDS011;34424;52.234;6.500;2024-02-21T01:26:11;30.3;;;18;;
48627;SDS011;34424;52.234;6.500;2024-02-21T01:31:11;31.7;;;18.4;;
48627;SDS011;34424;52.234;6.500;2024-02-21T01:36:11;29.7;;;17.7;;
48627;SDS011;34424;52.234;6.500;2024-02-21T01:41:11;29.9;;;18;;
48627;SDS011;34424;52.234;6.500;2024-02-21T01:46:10;28.7;;;18.9;;
48627;SDS011;34424;52.234;6.500;2024-02-21T01:51:10;31.6;;;18.8;;
48627;SDS011;34424;52.234;6.500;2024-02-21T01:56:10;30.1;;;19;;
48627;SDS011;34424;52.234;6.500;2024-02-21T02:01:10;26.3;;;18.1;;
48627;SDS011;34424;52.234;6.500;2024-02-21T02:06:09;34.4;;;19.7;;
48627;SDS011;34424;52.234;6.500;2024-02-21T02:11:09;29;;;18.8;;
48627;SDS011;34424;52.234;6.500;2024-02-21T02:16:09;31.8;;;18.5;;
48627;SDS011;34424;52.234;6.500;2024-02-21T02:21:10;30.2;;;18.5;;
48627;SDS011;34424;52.234;6.500;2024-02-21T02:26:08;28.3;;;18.4;;
48627;SDS011;34424;52.234;6.500;2024-02-21T02:31:09;31;;;18.9;;
48627;SDS011;34424;52.234;6.500;2024-02-21T02:36:08;28.4;;;18.7;;
48627;SDS011;34424;52.234;6.500;2024-02-21T02:41:08;26.1;;;18.3;;
48627;SDS011;34424;52.234;6.500;2024-02-21T02:46:07;26.7;;;17;;
48627;SDS011;34424;52.234;6.500;2024-02-21T02:51:07;29;;;18.2;;
48627;SDS011;34424;52.234;6.500;2024-02-21T02:56:07;25.5;;;17.4;;
48627;SDS011;34424;52.234;6.500;2024-02-21T03:01:07;28.5;;;18;;
48627;SDS011;34424;52.234;6.500;2024-02-21T03:06:07;25.4;;;18.1;;
48627;SDS011;34424;52.234;6.500;2024-02-21T03:11:06;25.5;;;17.4;;
48627;SDS011;34424;52.234;6.500;2024-02-21T03:16:06;29.6;;;19;;
48627;SDS011;34424;52.234;6.500;2024-02-21T03:21:06;28.1;;;17.7;;
48627;SDS011;34424;52.234;6.500;2024-02-21T03:26:05;28.4;;;17.9;;
48627;SDS011;34424;52.234;6.500;2024-02-21T03:31:05;29.3;;;18.3;;
48627;SDS011;34424;52.234;6.500;2024-02-21T03:36:05;26.2;;;18.7;;
48627;SDS011;34424;52.234;6.500;2024-02-21T03:41:05;28.7;;;19.4;;
48627;SDS011;34424;52.234;6.500;2024-02-21T03:46:04;29;;;19.6;;
48627;SDS011;34424;52.234;6.500;2024-02-21T03:51:04;29.4;;;18.4;;
48627;SDS011;34424;52.234;6.500;2024-02-21T03:56:04;28;;;18.5;;
48627;SDS011;34424;52.234;6.500;2024-02-21T04:01:04;26.8;;;18.1;;
48627;SDS011;34424;52.234;6.500;2024-02-21T04:06:04;27.4;;;17.8;;
48627;SDS011;34424;52.234;6.500;2024-02-21T04:11:03;28.9;;;18.4;;
48627;SDS011;34424;52.234;6.500;2024-02-21T04:16:03;29.9;;;18;;
48627;SDS011;34424;52.234;6.500;2024-02-21T04:21:03;29.7;;;18.8;;
48627;SDS011;34424;52.234;6.500;2024-02-21T04:26:02;27.8;;;17.6;;
48627;SDS011;34424;52.234;6.500;2024-02-21T04:31:02;30.6;;;17.7;;
48627;SDS011;34424;52.234;6.500;2024-02-21T04:36:02;31.5;;;18.5;;
48627;SDS011;34424;52.234;6.500;2024-02-21T04:41:02;28.5;;;18.3;;
48627;SDS011;34424;52.234;6.500;2024-02-21T04:46:01;26.8;;;16.5;;
48627;SDS011;34424;52.234;6.500;2024-02-21T04:51:01;29;;;18.3;;
48627;SDS011;34424;52.234;6.500;2024-02-21T04:56:01;31.2;;;17.5;;
48627;SDS011;34424;52.234;6.500;2024-02-21T05:01:00;26.8;;;17.4;;
48627;SDS011;34424;52.234;6.500;2024-02-21T05:06:00;22.6;;;16;;
48627;SDS011;34424;52.234;6.500;2024-02-21T05:11:00;22.9;;;15.8;;
48627;SDS011;34424;52.234;6.500;2024-02-21T05:16:00;23.2;;;15.5;;
48627;SDS011;34424;52.234;6.500;2024-02-21T05:21:00;24.6;;;15.1;;
48627;SDS011;34424;52.234;6.500;2024-02-21T05:25:59;27.2;;;15.2;;
48627;SDS011;34424;52.234;6.500;2024-02-21T05:30:59;22.6;;;15.3;;
48627;SDS011;34424;52.234;6.500;2024-02-21T05:35:59;24.8;;;15.3;;
48627;SDS011;34424;52.234;6.500;2024-02-21T05:40:58;20.3;;;14.4;;
48627;SDS011;34424;52.234;6.500;2024-02-21T05:45:58;26.5;;;14.5;;
48627;SDS011;34424;52.234;6.500;2024-02-21T05:50:58;23.3;;;14.7;;
48627;SDS011;34424;52.234;6.500;2024-02-21T05:55:57;22.4;;;14.2;;
48627;SDS011;34424;52.234;6.500;2024-02-21T06:00:57;20.4;;;14.4;;
48627;SDS011;34424;52.234;6.500;2024-02-21T06:05:57;21.1;;;15.1;;
48627;SDS011;34424;52.234;6.500;2024-02-21T06:10:57;22.6;;;14.3;;
48627;SDS011;34424;52.234;6.500;2024-02-21T06:15:56;24.8;;;14.4;;
48627;SDS011;34424;52.234;6.500;2024-02-21T06:20:56;24.3;;;14.6;;
48627;SDS011;34424;52.234;6.500;2024-02-21T06:25:56;19.5;;;14.1;;
48627;SDS011;34424;52.234;6.500;2024-02-21T06:30:56;19.2;;;14.3;;
48627;SDS011;34424;52.234;6.500;2024-02-21T06:35:55;20.1;;;13.6;;
48627;SDS011;34424;52.234;6.500;2024-02-21T06:40:55;22.2;;;14;;
48627;SDS011;34424;52.234;6.500;2024-02-21T06:45:55;22.9;;;14.1;;
48627;SDS011;34424;52.234;6.500;2024-02-21T06:50:55;22.9;;;14.1;;
48627;SDS011;34424;52.234;6.500;2024-02-21T06:55:54;20.1;;;13.5;;
48627;SDS011;34424;52.234;6.500;2024-02-21T07:00:54;18.9;;;13.1;;
48627;SDS011;34424;52.234;6.500;2024-02-21T07:05:54;18.8;;;12.7;;
48627;SDS011;34424;52.234;6.500;2024-02-21T07:10:53;19.3;;;11.9;;
48627;SDS011;34424;52.234;6.500;2024-02-21T07:15:53;16.4;;;11;;
48627;SDS011;34424;52.234;6.500;2024-02-21T07:20:53;15.2;;;11;;
48627;SDS011;34424;52.234;6.500;2024-02-21T07:25:53;17;;;10.7;;
48627;SDS011;34424;52.234;6.500;2024-02-21T07:30:52;19.9;;;10.7;;
48627;SDS011;34424;52.234;6.500;2024-02-21T07:35:52;17.3;;;10.1;;
48627;SDS011;34424;52.234;6.500;2024-02-21T07:40:52;16.6;;;10.5;;
48627;SDS011;34424;52.234;6.500;2024-02-21T07:45:52;16.7;;;11.4;;
48627;SDS011;34424;52.234;6.500;2024-02-21T07:50:51;23.2;;;12.4;;
48627;SDS011;34424;52.234;6.500;2024-02-21T07:55:51;19.8;;;12;;
48627;SDS011;34424;52.234;6.500;2024-02-21T08:00:51;18.1;;;11.7;;
48627;SDS011;34424;52.234;6.500;2024-02-21T08:05:50;16.6;;;11.5;;
48627;SDS011;34424;52.234;6.500;2024-02-21T08:10:50;19.4;;;11.5;;
48627;SDS011;34424;52.234;6.500;2024-02-21T08:15:50;21.1;;;11.4;;
48627;SDS011;34424;52.234;6.500;2024-02-21T08:20:50;22.5;;;11.7;;
48627;SDS011;34424;52.234;6.500;2024-02-21T08:25:49;18.5;;;10.9;;
48627;SDS011;34424;52.234;6.500;2024-02-21T08:30:49;19.1;;;10.4;;
48627;SDS011;34424;52.234;6.500;2024-02-21T08:35:49;17.4;;;11.1;;
48627;SDS011;34424;52.234;6.500;2024-02-21T08:40:49;17.3;;;10.2;;
48627;SDS011;34424;52.234;6.500;2024-02-21T08:45:48;17.3;;;10.1;;
48627;SDS011;34424;52.234;6.500;2024-02-21T08:50:48;16.6;;;10.1;;
48627;SDS011;34424;52.234;6.500;2024-02-21T08:55:48;16;;;9.5;;
48627;SDS011;34424;52.234;6.500;2024-02-21T09:00:48;15.3;;;10.1;;
48627;SDS011;34424;52.234;6.500;2024-02-21T09:05:48;11.5;;;9.2;;
48627;SDS011;34424;52.234;6.500;2024-02-21T09:10:47;15.3;;;9.8;;
48627;SDS011;34424;52.234;6.500;2024-02-21T09:15:47;15.6;;;9.3;;
48627;SDS011;34424;52.234;6.500;2024-02-21T09:20:47;14.2;;;9.9;;
48627;SDS011;34424;52.234;6.500;2024-02-21T09:25:47;14.1;;;9.8;;
48627;SDS011;34424;52.234;6.500;2024-02-21T09:30:47;14.4;;;9.6;;
48627;SDS011;34424;52.234;6.500;2024-02-21T09:35:46;14.9;;;9.9;;
48627;SDS011;34424;52.234;6.500;2024-02-21T09:40:46;15.2;;;9.8;;
48627;SDS011;34424;52.234;6.500;2024-02-21T09:45:46;16.7;;;10.1;;
48627;SDS011;34424;52.234;6.500;2024-02-21T09:50:46;12.5;;;9.3;;
48627;SDS011;34424;52.234;6.500;2024-02-21T09:55:46;14.9;;;9;;
48627;SDS011;34424;52.234;6.500;2024-02-21T10:00:45;14.1;;;9;;
48627;SDS011;34424;52.234;6.500;2024-02-21T10:05:46;11.8;;;8.9;;
48627;SDS011;34424;52.234;6.500;2024-02-21T10:10:48;13.9;;;8.7;;
48627;SDS011;34424;52.234;6.500;2024-02-21T10:15:45;12.4;;;9.1;;
48627;SDS011;34424;52.234;6.500;2024-02-21T10:20:45;12.5;;;8.6;;
48627;SDS011;34424;52.234;6.500;2024-02-21T10:25:44;13.2;;;8.5;;
48627;SDS011;34424;52.234;6.500;2024-02-21T10:30:52;11.1;;;8.2;;
48627;SDS011;34424;52.234;6.500;2024-02-21T10:35:44;9.4;;;8.2;;
48627;SDS011;34424;52.234;6.500;2024-02-21T10:40:44;13.5;;;8.4;;
48627;SDS011;34424;52.234;6.500;2024-02-21T10:45:44;10;;;7.8;;
48627;SDS011;34424;52.234;6.500;2024-02-21T10:50:47;10.3;;;7.5;;
48627;SDS011;34424;52.234;6.500;2024-02-21T10:55:44;9.2;;;7.5;;
48627;SDS011;34424;52.234;6.500;2024-02-21T11:00:43;9.5;;;7.6;;
48627;SDS011;34424;52.234;6.500;2024-02-21T11:05:43;9.8;;;7;;
48627;SDS011;34424;52.234;6.500;2024-02-21T11:10:45;10.7;;;6.4;;
48627;SDS011;34424;52.234;6.500;2024-02-21T11:15:43;10.2;;;6.4;;
48627;SDS011;34424;52.234;6.500;2024-02-21T11:20:49;9.1;;;6.3;;
48627;SDS011;34424;52.234;6.500;2024-02-21T11:25:42;8.6;;;6;;
48627;SDS011;34424;52.234;6.500;2024-02-21T11:30:42;5.6;;;5;;
48627;SDS011;34424;52.234;6.500;2024-02-21T11:35:42;7.3;;;5.4;;
48627;SDS011;34424;52.234;6.500;2024-02-21T11:40:43;7.1;;;5.7;;
48627;SDS011;34424;52.234;6.500;2024-02-21T11:45:41;9;;;6;;
48627;SDS011;34424;52.234;6.500;2024-02-21T11:50:41;9.3;;;7.6;;
48627;SDS011;34424;52.234;6.500;2024-02-21T11:55:41;8.8;;;7.1;;
48627;SDS011;34424;52.234;6.500;2024-02-21T12:00:41;8.4;;;6.9;;
48627;SDS011;34424;52.234;6.500;2024-02-21T12:05:41;9.2;;;6.6;;
48627;SDS011;34424;52.234;6.500;2024-02-21T12:10:41;11.4;;;6.9;;
48627;SDS011;34424;52.234;6.500;2024-02-21T12:15:42;11.3;;;7.1;;
48627;SDS011;34424;52.234;6.500;2024-02-21T12:20:40;11.5;;;7.9;;
48627;SDS011;34424;52.234;6.500;2024-02-21T12:25:40;12.3;;;8.1;;
48627;SDS011;34424;52.234;6.500;2024-02-21T12:30:40;10.6;;;8.4;;
48627;SDS011;34424;52.234;6.500;2024-02-21T12:35:39;12;;;8.5;;
48627;SDS011;34424;52.234;6.500;2024-02-21T12:40:39;11.1;;;7.4;;
48627;SDS011;34424;52.234;6.500;2024-02-21T12:45:39;12.3;;;7.9;;
48627;SDS011;34424;52.234;6.500;2024-02-21T12:50:39;11.6;;;7.8;;
48627;SDS011;34424;52.234;6.500;2024-02-21T12:55:39;11.7;;;7.4;;
48627;SDS011;34424;52.234;6.500;2024-02-21T13:00:38;11.5;;;8;;
48627;SDS011;34424;52.234;6.500;2024-02-21T13:05:38;10.7;;;7.6;;
48627;SDS011;34424;52.234;6.500;2024-02-21T13:10:38;11;;;6.8;;
48627;SDS011;34424;52.234;6.500;2024-02-21T13:15:38;10.8;;;6.4;;
48627;SDS011;34424;52.234;6.500;2024-02-21T13:20:38;10.9;;;6.8;;
48627;SDS011;34424;52.234;6.500;2024-02-21T13:25:38;11.2;;;6.5;;
48627;SDS011;34424;52.234;6.500;2024-02-21T13:30:37;9.3;;;6.5;;
48627;SDS011;34424;52.234;6.500;2024-02-21T13:35:37;11.2;;;6.4;;
48627;SDS011;34424;52.234;6.500;2024-02-21T13:40:37;10.4;;;6.5;;
48627;SDS011;34424;52.234;6.500;2024-02-21T13:45:37;12.2;;;6.4;;
48627;SDS011;34424;52.234;6.500;2024-02-21T13:50:37;9.6;;;6.4;;
48627;SDS011;34424;52.234;6.500;2024-02-21T13:55:37;8.9;;;6.8;;
48627;SDS011;34424;52.234;6.500;2024-02-21T14:00:36;9.5;;;6.7;;
48627;SDS011;34424;52.234;6.500;2024-02-21T14:05:36;12.8;;;6.5;;
48627;SDS011;34424;52.234;6.500;2024-02-21T14:10:36;11.9;;;6.4;;
48627;SDS011;34424;52.234;6.500;2024-02-21T14:15:36;10.9;;;6.7;;
48627;SDS011;34424;52.234;6.500;2024-02-21T14:20:36;10.7;;;6.1;;
48627;SDS011;34424;52.234;6.500;2024-02-21T14:25:35;11.8;;;6.4;;
48627;SDS011;34424;52.234;6.500;2024-02-21T14:30:35;9.8;;;6.5;;
48627;SDS011;34424;52.234;6.500;2024-02-21T14:35:35;10.2;;;6.7;;
48627;SDS011;34424;52.234;6.500;2024-02-21T14:40:35;9;;;6.3;;
48627;SDS011;34424;52.234;6.500;2024-02-21T14:45:35;9.7;;;6.2;;
48627;SDS011;34424;52.234;6.500;2024-02-21T14:50:34;8;;;6.2;;
48627;SDS011;34424;52.234;6.500;2024-02-21T14:55:34;8.9;;;6.5;;
48627;SDS011;34424;52.234;6.500;2024-02-21T15:00:34;10.7;;;6.8;;
48627;SDS011;34424;52.234;6.500;2024-02-21T15:05:34;9.4;;;6;;
48627;SDS011;34424;52.234;6.500;2024-02-21T15:10:34;8.5;;;6.2;;
48627;SDS011;34424;52.234;6.500;2024-02-21T15:15:33;12.9;;;6.7;;
48627;SDS011;34424;52.234;6.500;2024-02-21T15:20:33;10.8;;;5.9;;
48627;SDS011;34424;52.234;6.500;2024-02-21T15:25:33;8.3;;;5.2;;
48627;SDS011;34424;52.234;6.500;2024-02-21T15:30:33;8.4;;;5.5;;
48627;SDS011;34424;52.234;6.500;2024-02-21T15:35:33;8.3;;;5.4;;
48627;SDS011;34424;52.234;6.500;2024-02-21T15:40:33;7.6;;;5.3;;
48627;SDS011;34424;52.234;6.500;2024-02-21T15:45:32;8.1;;;5.2;;
48627;SDS011;34424;52.234;6.500;2024-02-21T15:50:32;6.4;;;5.1;;
48627;SDS011;34424;52.234;6.500;2024-02-21T15:55:32;8.7;;;5.4;;
48627;SDS011;34424;52.234;6.500;2024-02-21T16:00:32;9.7;;;6;;
48627;SDS011;34424;52.234;6.500;2024-02-21T16:05:31;8.7;;;5.7;;
48627;SDS011;34424;52.234;6.500;2024-02-21T16:10:31;8.9;;;6.2;;
48627;SDS011;34424;52.234;6.500;2024-02-21T16:15:31;10.9;;;6.6;;
48627;SDS011;34424;52.234;6.500;2024-02-21T16:20:31;12.7;;;6.7;;
48627;SDS011;34424;52.234;6.500;2024-02-21T16:25:30;8.9;;;5.8;;
48627;SDS011;34424;52.234;6.500;2024-02-21T16:30:30;10.1;;;5.9;;
48627;SDS011;34424;52.234;6.500;2024-02-21T16:35:30;9.7;;;5.6;;
48627;SDS011;34424;52.234;6.500;2024-02-21T16:40:29;8.7;;;5.9;;
48627;SDS011;34424;52.234;6.500;2024-02-21T16:45:29;8.8;;;5.8;;
48627;SDS011;34424;52.234;6.500;2024-02-21T16:50:29;7.3;;;5.6;;
48627;SDS011;34424;52.234;6.500;2024-02-21T16:55:29;11.4;;;6.6;;
48627;SDS011;34424;52.234;6.500;2024-02-21T17:00:28;9.2;;;5.8;;
48627;SDS011;34424;52.234;6.500;2024-02-21T17:05:28;11.8;;;6.3;;
48627;SDS011;34424;52.234;6.500;2024-02-21T17:10:28;12.8;;;7.5;;
48627;SDS011;34424;52.234;6.500;2024-02-21T17:15:28;14.2;;;9.6;;
48627;SDS011;34424;52.234;6.500;2024-02-21T17:20:27;16.2;;;10.7;;
48627;SDS011;34424;52.234;6.500;2024-02-21T17:25:27;16.1;;;10.3;;
48627;SDS011;34424;52.234;6.500;2024-02-21T17:30:27;15.7;;;8.9;;
48627;SDS011;34424;52.234;6.500;2024-02-21T17:35:26;14.1;;;8.5;;
48627;SDS011;34424;52.234;6.500;2024-02-21T17:40:26;12.9;;;7.4;;
48627;SDS011;34424;52.234;6.500;2024-02-21T17:45:26;11.1;;;7;;
48627;SDS011;34424;52.234;6.500;2024-02-21T17:50:26;10.7;;;6.8;;
48627;SDS011;34424;52.234;6.500;2024-02-21T17:55:25;12.8;;;7.8;;
48627;SDS011;34424;52.234;6.500;2024-02-21T18:00:25;11.2;;;7.9;;
48627;SDS011;34424;52.234;6.500;2024-02-21T18:05:25;9.8;;;7.1;;
48627;SDS011;34424;52.234;6.500;2024-02-21T18:10:24;11.9;;;7.5;;
48627;SDS011;34424;52.234;6.500;2024-02-21T18:15:24;10.1;;;6.9;;
48627;SDS011;34424;52.234;6.500;2024-02-21T18:20:24;11;;;6.6;;
48627;SDS011;34424;52.234;6.500;2024-02-21T18:25:24;12.3;;;7.1;;
48627;SDS011;34424;52.234;6.500;2024-02-21T18:30:23;11.1;;;7.7;;
48627;SDS011;34424;52.234;6.500;2024-02-21T18:35:23;10.3;;;7.3;;
48627;SDS011;34424;52.234;6.500;2024-02-21T18:40:23;10.4;;;7.3;;
48627;SDS011;34424;52.234;6.500;2024-02-21T18:45:22;10.9;;;7.5;;
48627;SDS011;34424;52.234;6.500;2024-02-21T18:50:22;11.7;;;8;;
48627;SDS011;34424;52.234;6.500;2024-02-21T18:55:22;10.2;;;7.9;;
48627;SDS011;34424;52.234;6.500;2024-02-21T19:00:22;9.9;;;7.3;;
48627;SDS011;34424;52.234;6.500;2024-02-21T19:05:21;12.4;;;7.7;;
48627;SDS011;34424;52.234;6.500;2024-02-21T19:10:21;9.9;;;7.5;;
48627;SDS011;34424;52.234;6.500;2024-02-21T19:15:21;11.8;;;7.2;;
48627;SDS011;34424;52.234;6.500;2024-02-21T19:20:20;11.1;;;7.5;;
48627;SDS011;34424;52.234;6.500;2024-02-21T19:25:20;10.7;;;7.1;;
48627;SDS011;34424;52.234;6.500;2024-02-21T19:30:20;9.5;;;7.3;;
48627;SDS011;34424;52.234;6.500;2024-02-21T19:35:20;9.6;;;7.9;;
48627;SDS011;34424;52.234;6.500;2024-02-21T19:40:19;8.8;;;7.5;;
48627;SDS011;34424;52.234;6.500;2024-02-21T19:45:19;8.8;;;7.9;;
48627;SDS011;34424;52.234;6.500;2024-02-21T19:50:19;12.8;;;10;;
48627;SDS011;34424;52.234;6.500;2024-02-21T19:55:19;13.1;;;8.6;;
48627;SDS011;34424;52.234;6.500;2024-02-21T20:00:19;10.4;;;8.2;;
48627;SDS011;34424;52.234;6.500;2024-02-21T20:05:18;10.6;;;9;;
48627;SDS011;34424;52.234;6.500;2024-02-21T20:10:18;9.8;;;8.4;;
48627;SDS011;34424;52.234;6.500;2024-02-21T20:15:17;10.8;;;8.5;;
48627;SDS011;34424;52.234;6.500;2024-02-21T20:20:17;12.2;;;9;;
48627;SDS011;34424;52.234;6.500;2024-02-21T20:25:17;12.8;;;10.2;;
48627;SDS011;34424;52.234;6.500;2024-02-21T20:30:17;10.9;;;9.7;;
48627;SDS011;34424;52.234;6.500;2024-02-21T20:35:16;11.6;;;10;;
48627;SDS011;34424;52.234;6.500;2024-02-21T20:40:16;12.1;;;10.9;;
48627;SDS011;34424;52.234;6.500;2024-02-21T20:45:16;13.7;;;12.3;;
48627;SDS011;34424;52.234;6.500;2024-02-21T20:50:16;13.4;;;11.4;;
48627;SDS011;34424;52.234;6.500;2024-02-21T20:55:15;13.3;;;11.6;;
48627;SDS011;34424;52.234;6.500;2024-02-21T21:00:16;13.3;;;10.4;;
48627;SDS011;34424;52.234;6.500;2024-02-21T21:05:15;14.2;;;10.8;;
48627;SDS011;34424;52.234;6.500;2024-02-21T21:10:15;11.4;;;10.2;;
48627;SDS011;34424;52.234;6.500;2024-02-21T21:15:14;12.7;;;10.7;;
48627;SDS011;34424;52.234;6.500;2024-02-21T21:20:14;12.3;;;10.5;;
48627;SDS011;34424;52.234;6.500;2024-02-21T21:25:14;14.7;;;11.2;;
48627;SDS011;34424;52.234;6.500;2024-02-21T21:30:14;12.6;;;11;;
48627;SDS011;34424;52.234;6.500;2024-02-21T21:35:13;11.7;;;10.3;;
48627;SDS011;34424;52.234;6.500;2024-02-21T21:40:13;11.4;;;10.2;;
48627;SDS011;34424;52.234;6.500;2024-02-21T21:45:13;12.5;;;11.2;;
48627;SDS011;34424;52.234;6.500;2024-02-21T21:50:13;11.5;;;10.4;;
48627;SDS011;34424;52.234;6.500;2024-02-21T21:55:12;12.1;;;9.5;;
48627;SDS011;34424;52.234;6.500;2024-02-21T22:00:13;11.3;;;10.2;;
48627;SDS011;34424;52.234;6.500;2024-02-21T22:05:12;11.3;;;10.2;;
48627;SDS011;34424;52.234;6.500;2024-02-21T22:10:12;10.9;;;9.9;;
48627;SDS011;34424;52.234;6.500;2024-02-21T22:15:12;10.6;;;9.5;;
48627;SDS011;34424;52.234;6.500;2024-02-21T22:20:11;10.8;;;9.7;;
48627;SDS011;34424;52.234;6.500;2024-02-21T22:25:11;10.6;;;9.5;;
48627;SDS011;34424;52.234;6.500;2024-02-21T22:30:11;10.3;;;9.2;;
48627;SDS011;34424;52.234;6.500;2024-02-21T22:35:10;10.2;;;9.2;;
48627;SDS011;34424;52.234;6.500;2024-02-21T22:40:10;10.4;;;9.4;;
48627;SDS011;34424;52.234;6.500;2024-02-21T22:45:10;9.8;;;8.9;;
48627;SDS011;34424;52.234;6.500;2024-02-21T22:50:10;9.8;;;8.8;;
48627;SDS011;34424;52.234;6.500;2024-02-21T22:55:09;9.5;;;8.6;;
48627;SDS011;34424;52.234;6.500;2024-02-21T23:00:09;8.9;;;8;;
48627;SDS011;34424;52.234;6.500;2024-02-21T23:05:09;9.7;;;8.7;;
48627;SDS011;34424;52.234;6.500;2024-02-21T23:10:09;9.2;;;8.2;;
48627;SDS011;34424;52.234;6.500;2024-02-21T23:15:09;7.9;;;7.2;;
48627;SDS011;34424;52.234;6.500;2024-02-21T23:20:08;8.5;;;7.7;;
48627;SDS011;34424;52.234;6.500;2024-02-21T23:25:08;7.9;;;7.2;;
48627;SDS011;34424;52.234;6.500;2024-02-21T23:30:08;7.9;;;7.1;;
48627;SDS011;34424;52.234;6.500;2024-02-21T23:35:07;8.1;;;7.4;;
48627;SDS011;34424;52.234;6.500;2024-02-21T23:40:07;8.1;;;7.4;;
48627;SDS011;34424;52.234;6.500;2024-02-21T23:45:07;8.1;;;7.3;;
48627;SDS011;34424;52.234;6.500;2024-02-21T23:50:07;8.6;;;7.8;;
48627;SDS011;34424;52.234;6.500;2024-02-21T23:55:06;8.5;;;7.8;;
